Terminal Aerodrome Forecast
Issued by NWS Midland/Odessa, TX

Home | Current Version | Previous Version | Text Only | Print | Product List | Glossary On
Versions: 1 2 3 4 5 6 7 8 9 10 11 12 13 14 15 16 17 18 19 20 21
000
FTUS44 KMAF 190600 AAA
TAFMAF
TAF AMD
KMAF 190653Z 1907/2006 13009KT P6SM FEW009 BKN014
      TEMPO 1912/1916 3SM TSRA BR OVC013CB
     FM191600 12010KT P6SM OVC020
      TEMPO 1916/1920 3SM TSRA BR OVC010CB
     FM192000 13012KT P6SM OVC030
      TEMPO 1920/1924 5SM TSRA OVC020CB=

USA.gov is the U.S. government's official web portal to all federal, state and local government web resources and services.